sensor_id;sensor_type;location;lat;lon;timestamp;P1;durP1;ratioP1;P2;durP2;ratioP2
59824;SDS011;45703;50.898;6.054;2023-11-19T00:02:11;7.07;;;3.38;;
59824;SDS011;45703;50.898;6.054;2023-11-19T00:04:39;8.48;;;4.85;;
59824;SDS011;45703;50.898;6.054;2023-11-19T00:07:05;9.48;;;5.85;;
59824;SDS011;45703;50.898;6.054;2023-11-19T00:09:32;7.93;;;4.20;;
59824;SDS011;45703;50.898;6.054;2023-11-19T00:11:58;7.70;;;4.53;;
59824;SDS011;45703;50.898;6.054;2023-11-19T00:14:25;7.05;;;3.17;;
59824;SDS011;45703;50.898;6.054;2023-11-19T00:16:51;7.53;;;2.50;;
59824;SDS011;45703;50.898;6.054;2023-11-19T00:19:16;5.82;;;2.00;;
59824;SDS011;45703;50.898;6.054;2023-11-19T00:21:42;4.97;;;1.55;;
59824;SDS011;45703;50.898;6.054;2023-11-19T00:24:07;4.30;;;1.02;;
59824;SDS011;45703;50.898;6.054;2023-11-19T00:26:33;3.15;;;0.90;;
59824;SDS011;45703;50.898;6.054;2023-11-19T00:28:59;4.18;;;0.93;;
59824;SDS011;45703;50.898;6.054;2023-11-19T00:31:24;3.47;;;1.00;;
59824;SDS011;45703;50.898;6.054;2023-11-19T00:33:53;3.35;;;0.68;;
59824;SDS011;45703;50.898;6.054;2023-11-19T00:36:18;3.65;;;0.70;;
59824;SDS011;45703;50.898;6.054;2023-11-19T00:38:44;3.17;;;0.75;;
59824;SDS011;45703;50.898;6.054;2023-11-19T00:41:09;3.70;;;0.82;;
59824;SDS011;45703;50.898;6.054;2023-11-19T00:43:35;5.32;;;1.48;;
59824;SDS011;45703;50.898;6.054;2023-11-19T00:46:01;2.92;;;0.80;;
59824;SDS011;45703;50.898;6.054;2023-11-19T00:48:27;4.53;;;1.10;;
59824;SDS011;45703;50.898;6.054;2023-11-19T00:50:53;3.90;;;1.08;;
59824;SDS011;45703;50.898;6.054;2023-11-19T00:53:18;5.53;;;1.10;;
59824;SDS011;45703;50.898;6.054;2023-11-19T00:55:44;4.88;;;1.15;;
59824;SDS011;45703;50.898;6.054;2023-11-19T00:58:09;5.80;;;1.23;;
59824;SDS011;45703;50.898;6.054;2023-11-19T01:00:35;5.32;;;1.60;;
59824;SDS011;45703;50.898;6.054;2023-11-19T01:03:00;5.60;;;1.40;;
59824;SDS011;45703;50.898;6.054;2023-11-19T01:05:26;5.35;;;1.45;;
59824;SDS011;45703;50.898;6.054;2023-11-19T01:07:52;5.28;;;1.58;;
59824;SDS011;45703;50.898;6.054;2023-11-19T01:10:19;6.15;;;1.73;;
59824;SDS011;45703;50.898;6.054;2023-11-19T01:12:44;7.05;;;1.90;;
59824;SDS011;45703;50.898;6.054;2023-11-19T01:15:09;7.78;;;1.80;;
59824;SDS011;45703;50.898;6.054;2023-11-19T01:17:36;6.55;;;2.10;;
59824;SDS011;45703;50.898;6.054;2023-11-19T01:20:03;5.88;;;1.80;;
59824;SDS011;45703;50.898;6.054;2023-11-19T01:22:30;5.18;;;1.63;;
59824;SDS011;45703;50.898;6.054;2023-11-19T01:24:56;6.93;;;2.50;;
59824;SDS011;45703;50.898;6.054;2023-11-19T01:27:23;8.85;;;2.13;;
59824;SDS011;45703;50.898;6.054;2023-11-19T01:29:51;6.05;;;1.85;;
59824;SDS011;45703;50.898;6.054;2023-11-19T01:32:16;5.70;;;1.77;;
59824;SDS011;45703;50.898;6.054;2023-11-19T01:34:42;7.95;;;1.88;;
59824;SDS011;45703;50.898;6.054;2023-11-19T01:37:07;7.40;;;2.10;;
59824;SDS011;45703;50.898;6.054;2023-11-19T01:39:37;7.07;;;2.25;;
59824;SDS011;45703;50.898;6.054;2023-11-19T01:42:03;6.15;;;2.25;;
59824;SDS011;45703;50.898;6.054;2023-11-19T01:44:28;10.10;;;2.20;;
59824;SDS011;45703;50.898;6.054;2023-11-19T01:46:53;7.40;;;1.90;;
59824;SDS011;45703;50.898;6.054;2023-11-19T01:49:19;8.77;;;2.78;;
59824;SDS011;45703;50.898;6.054;2023-11-19T01:51:45;9.40;;;2.22;;
59824;SDS011;45703;50.898;6.054;2023-11-19T01:54:12;6.50;;;1.88;;
59824;SDS011;45703;50.898;6.054;2023-11-19T01:56:40;6.88;;;2.10;;
59824;SDS011;45703;50.898;6.054;2023-11-19T01:59:06;10.20;;;1.80;;
59824;SDS011;45703;50.898;6.054;2023-11-19T02:01:34;5.75;;;1.55;;
59824;SDS011;45703;50.898;6.054;2023-11-19T02:04:04;7.90;;;2.60;;
59824;SDS011;45703;50.898;6.054;2023-11-19T02:06:32;7.30;;;1.60;;
59824;SDS011;45703;50.898;6.054;2023-11-19T02:08:59;6.38;;;1.70;;
59824;SDS011;45703;50.898;6.054;2023-11-19T02:11:25;8.25;;;1.88;;
59824;SDS011;45703;50.898;6.054;2023-11-19T02:13:54;8.80;;;1.90;;
59824;SDS011;45703;50.898;6.054;2023-11-19T02:16:20;6.82;;;1.73;;
59824;SDS011;45703;50.898;6.054;2023-11-19T02:18:46;6.78;;;1.73;;
59824;SDS011;45703;50.898;6.054;2023-11-19T02:21:11;7.40;;;1.92;;
59824;SDS011;45703;50.898;6.054;2023-11-19T02:23:39;6.63;;;1.85;;
59824;SDS011;45703;50.898;6.054;2023-11-19T02:26:15;6.07;;;1.58;;
59824;SDS011;45703;50.898;6.054;2023-11-19T02:28:49;6.88;;;1.70;;
59824;SDS011;45703;50.898;6.054;2023-11-19T02:31:15;7.78;;;1.65;;
59824;SDS011;45703;50.898;6.054;2023-11-19T02:33:40;11.68;;;2.60;;
59824;SDS011;45703;50.898;6.054;2023-11-19T02:36:06;8.63;;;2.15;;
59824;SDS011;45703;50.898;6.054;2023-11-19T02:38:33;8.43;;;2.00;;
59824;SDS011;45703;50.898;6.054;2023-11-19T02:41:04;8.43;;;1.95;;
59824;SDS011;45703;50.898;6.054;2023-11-19T02:43:31;9.25;;;2.05;;
59824;SDS011;45703;50.898;6.054;2023-11-19T02:45:59;8.63;;;1.80;;
59824;SDS011;45703;50.898;6.054;2023-11-19T02:48:31;9.07;;;2.20;;
59824;SDS011;45703;50.898;6.054;2023-11-19T02:50:57;8.27;;;1.90;;
59824;SDS011;45703;50.898;6.054;2023-11-19T02:53:23;11.40;;;1.85;;
59824;SDS011;45703;50.898;6.054;2023-11-19T02:55:49;7.60;;;1.88;;
59824;SDS011;45703;50.898;6.054;2023-11-19T02:58:15;8.68;;;1.98;;
59824;SDS011;45703;50.898;6.054;2023-11-19T03:00:49;9.50;;;1.92;;
59824;SDS011;45703;50.898;6.054;2023-11-19T03:03:27;8.00;;;1.65;;
59824;SDS011;45703;50.898;6.054;2023-11-19T03:06:06;6.05;;;1.20;;
59824;SDS011;45703;50.898;6.054;2023-11-19T03:08:35;9.68;;;1.98;;
59824;SDS011;45703;50.898;6.054;2023-11-19T03:11:00;8.88;;;2.45;;
59824;SDS011;45703;50.898;6.054;2023-11-19T03:13:26;11.05;;;2.13;;
59824;SDS011;45703;50.898;6.054;2023-11-19T03:15:52;12.02;;;2.85;;
59824;SDS011;45703;50.898;6.054;2023-11-19T03:18:18;10.38;;;1.80;;
59824;SDS011;45703;50.898;6.054;2023-11-19T03:20:44;7.85;;;2.53;;
59824;SDS011;45703;50.898;6.054;2023-11-19T03:23:11;11.35;;;2.42;;
59824;SDS011;45703;50.898;6.054;2023-11-19T03:25:37;12.85;;;2.70;;
59824;SDS011;45703;50.898;6.054;2023-11-19T03:28:03;10.95;;;2.20;;
59824;SDS011;45703;50.898;6.054;2023-11-19T03:30:29;8.82;;;2.00;;
59824;SDS011;45703;50.898;6.054;2023-11-19T03:32:55;7.60;;;1.80;;
59824;SDS011;45703;50.898;6.054;2023-11-19T03:35:22;11.15;;;2.33;;
59824;SDS011;45703;50.898;6.054;2023-11-19T03:37:48;11.32;;;2.30;;
59824;SDS011;45703;50.898;6.054;2023-11-19T03:40:13;7.57;;;1.88;;
59824;SDS011;45703;50.898;6.054;2023-11-19T03:42:39;12.30;;;2.45;;
59824;SDS011;45703;50.898;6.054;2023-11-19T03:45:08;15.25;;;2.42;;
59824;SDS011;45703;50.898;6.054;2023-11-19T03:47:36;13.20;;;2.08;;
59824;SDS011;45703;50.898;6.054;2023-11-19T03:50:02;10.68;;;2.17;;
59824;SDS011;45703;50.898;6.054;2023-11-19T03:52:28;9.85;;;2.70;;
59824;SDS011;45703;50.898;6.054;2023-11-19T03:54:57;11.95;;;2.20;;
59824;SDS011;45703;50.898;6.054;2023-11-19T03:57:23;13.30;;;2.35;;
59824;SDS011;45703;50.898;6.054;2023-11-19T03:59:48;13.38;;;2.17;;
59824;SDS011;45703;50.898;6.054;2023-11-19T04:02:14;12.27;;;2.58;;
59824;SDS011;45703;50.898;6.054;2023-11-19T04:04:40;8.52;;;2.17;;
59824;SDS011;45703;50.898;6.054;2023-11-19T04:07:06;8.98;;;2.00;;
59824;SDS011;45703;50.898;6.054;2023-11-19T04:09:31;10.77;;;2.30;;
59824;SDS011;45703;50.898;6.054;2023-11-19T04:14:28;8.50;;;1.67;;
59824;SDS011;45703;50.898;6.054;2023-11-19T04:16:53;12.43;;;2.40;;
59824;SDS011;45703;50.898;6.054;2023-11-19T04:19:19;11.60;;;2.45;;
59824;SDS011;45703;50.898;6.054;2023-11-19T04:21:45;7.50;;;2.03;;
59824;SDS011;45703;50.898;6.054;2023-11-19T04:24:11;11.02;;;2.10;;
59824;SDS011;45703;50.898;6.054;2023-11-19T04:26:44;9.88;;;2.30;;
59824;SDS011;45703;50.898;6.054;2023-11-19T04:29:14;14.82;;;2.45;;
59824;SDS011;45703;50.898;6.054;2023-11-19T04:31:42;10.65;;;2.28;;
59824;SDS011;45703;50.898;6.054;2023-11-19T04:34:08;10.57;;;1.75;;
59824;SDS011;45703;50.898;6.054;2023-11-19T04:36:33;9.38;;;1.50;;
59824;SDS011;45703;50.898;6.054;2023-11-19T04:38:59;10.30;;;2.03;;
59824;SDS011;45703;50.898;6.054;2023-11-19T04:41:25;13.60;;;2.63;;
59824;SDS011;45703;50.898;6.054;2023-11-19T04:43:52;12.15;;;3.05;;
59824;SDS011;45703;50.898;6.054;2023-11-19T04:46:18;11.00;;;2.70;;
59824;SDS011;45703;50.898;6.054;2023-11-19T04:48:44;11.98;;;2.17;;
59824;SDS011;45703;50.898;6.054;2023-11-19T04:51:09;11.25;;;2.40;;
59824;SDS011;45703;50.898;6.054;2023-11-19T04:53:35;9.18;;;1.52;;
59824;SDS011;45703;50.898;6.054;2023-11-19T04:56:00;9.70;;;2.10;;
59824;SDS011;45703;50.898;6.054;2023-11-19T04:58:28;10.23;;;2.30;;
59824;SDS011;45703;50.898;6.054;2023-11-19T05:00:54;12.63;;;2.38;;
59824;SDS011;45703;50.898;6.054;2023-11-19T05:03:19;10.10;;;2.17;;
59824;SDS011;45703;50.898;6.054;2023-11-19T05:05:45;11.68;;;2.13;;
59824;SDS011;45703;50.898;6.054;2023-11-19T05:08:10;11.65;;;2.28;;
59824;SDS011;45703;50.898;6.054;2023-11-19T05:10:36;10.80;;;2.40;;
59824;SDS011;45703;50.898;6.054;2023-11-19T05:13:01;12.35;;;2.10;;
59824;SDS011;45703;50.898;6.054;2023-11-19T05:15:27;12.85;;;2.72;;
59824;SDS011;45703;50.898;6.054;2023-11-19T05:17:53;12.27;;;2.35;;
59824;SDS011;45703;50.898;6.054;2023-11-19T05:20:18;10.88;;;1.88;;
59824;SDS011;45703;50.898;6.054;2023-11-19T05:22:43;13.07;;;2.88;;
59824;SDS011;45703;50.898;6.054;2023-11-19T05:25:10;16.95;;;2.92;;
59824;SDS011;45703;50.898;6.054;2023-11-19T05:27:36;16.77;;;2.70;;
59824;SDS011;45703;50.898;6.054;2023-11-19T05:30:02;15.25;;;2.55;;
59824;SDS011;45703;50.898;6.054;2023-11-19T05:32:32;9.07;;;1.77;;
59824;SDS011;45703;50.898;6.054;2023-11-19T05:34:58;15.23;;;2.55;;
59824;SDS011;45703;50.898;6.054;2023-11-19T05:37:23;11.80;;;2.05;;
59824;SDS011;45703;50.898;6.054;2023-11-19T05:39:48;9.23;;;2.25;;
59824;SDS011;45703;50.898;6.054;2023-11-19T05:42:14;10.98;;;2.00;;
59824;SDS011;45703;50.898;6.054;2023-11-19T05:44:39;14.00;;;2.75;;
59824;SDS011;45703;50.898;6.054;2023-11-19T05:47:05;8.30;;;2.40;;
59824;SDS011;45703;50.898;6.054;2023-11-19T05:49:30;17.33;;;2.80;;
59824;SDS011;45703;50.898;6.054;2023-11-19T05:51:56;14.63;;;2.58;;
59824;SDS011;45703;50.898;6.054;2023-11-19T05:54:21;10.25;;;2.13;;
59824;SDS011;45703;50.898;6.054;2023-11-19T05:56:47;11.32;;;2.33;;
59824;SDS011;45703;50.898;6.054;2023-11-19T05:59:14;14.80;;;2.80;;
59824;SDS011;45703;50.898;6.054;2023-11-19T06:01:42;11.43;;;2.55;;
59824;SDS011;45703;50.898;6.054;2023-11-19T06:04:08;12.35;;;2.30;;
59824;SDS011;45703;50.898;6.054;2023-11-19T06:06:33;13.88;;;2.75;;
59824;SDS011;45703;50.898;6.054;2023-11-19T06:08:59;12.82;;;2.40;;
59824;SDS011;45703;50.898;6.054;2023-11-19T06:11:24;14.27;;;2.65;;
59824;SDS011;45703;50.898;6.054;2023-11-19T06:13:52;12.27;;;1.92;;
59824;SDS011;45703;50.898;6.054;2023-11-19T06:16:18;12.70;;;2.13;;
59824;SDS011;45703;50.898;6.054;2023-11-19T06:18:43;16.73;;;3.08;;
59824;SDS011;45703;50.898;6.054;2023-11-19T06:21:09;12.68;;;2.67;;
59824;SDS011;45703;50.898;6.054;2023-11-19T06:23:35;12.18;;;2.20;;
59824;SDS011;45703;50.898;6.054;2023-11-19T06:26:00;13.70;;;2.30;;
59824;SDS011;45703;50.898;6.054;2023-11-19T06:28:26;10.35;;;2.78;;
59824;SDS011;45703;50.898;6.054;2023-11-19T06:30:51;16.00;;;3.00;;
59824;SDS011;45703;50.898;6.054;2023-11-19T06:33:17;11.35;;;2.20;;
59824;SDS011;45703;50.898;6.054;2023-11-19T06:35:42;13.65;;;2.80;;
59824;SDS011;45703;50.898;6.054;2023-11-19T06:38:08;11.70;;;2.30;;
59824;SDS011;45703;50.898;6.054;2023-11-19T06:40:33;14.43;;;2.80;;
59824;SDS011;45703;50.898;6.054;2023-11-19T06:43:03;10.52;;;1.88;;
59824;SDS011;45703;50.898;6.054;2023-11-19T06:45:29;11.98;;;2.33;;
59824;SDS011;45703;50.898;6.054;2023-11-19T06:47:55;9.02;;;1.98;;
59824;SDS011;45703;50.898;6.054;2023-11-19T06:50:20;10.23;;;2.83;;
59824;SDS011;45703;50.898;6.054;2023-11-19T06:52:46;11.55;;;2.55;;
59824;SDS011;45703;50.898;6.054;2023-11-19T06:55:12;12.27;;;2.20;;
59824;SDS011;45703;50.898;6.054;2023-11-19T06:57:37;20.48;;;3.28;;
59824;SDS011;45703;50.898;6.054;2023-11-19T07:00:03;16.27;;;2.53;;
59824;SDS011;45703;50.898;6.054;2023-11-19T07:02:30;15.77;;;2.58;;
59824;SDS011;45703;50.898;6.054;2023-11-19T07:04:56;13.15;;;2.78;;
59824;SDS011;45703;50.898;6.054;2023-11-19T07:07:22;15.05;;;2.67;;
59824;SDS011;45703;50.898;6.054;2023-11-19T07:09:48;14.65;;;2.58;;
59824;SDS011;45703;50.898;6.054;2023-11-19T07:12:13;13.85;;;2.53;;
59824;SDS011;45703;50.898;6.054;2023-11-19T07:14:39;13.90;;;2.60;;
59824;SDS011;45703;50.898;6.054;2023-11-19T07:17:05;13.50;;;2.38;;
59824;SDS011;45703;50.898;6.054;2023-11-19T07:19:31;19.05;;;3.00;;
59824;SDS011;45703;50.898;6.054;2023-11-19T07:21:56;17.20;;;3.53;;
59824;SDS011;45703;50.898;6.054;2023-11-19T07:24:22;15.45;;;3.30;;
59824;SDS011;45703;50.898;6.054;2023-11-19T07:26:47;11.85;;;2.17;;
59824;SDS011;45703;50.898;6.054;2023-11-19T07:29:13;13.50;;;2.65;;
59824;SDS011;45703;50.898;6.054;2023-11-19T07:31:40;18.00;;;2.72;;
59824;SDS011;45703;50.898;6.054;2023-11-19T07:34:06;14.88;;;2.70;;
59824;SDS011;45703;50.898;6.054;2023-11-19T07:36:31;12.02;;;2.28;;
59824;SDS011;45703;50.898;6.054;2023-11-19T07:38:57;9.98;;;2.15;;
59824;SDS011;45703;50.898;6.054;2023-11-19T07:41:23;15.23;;;2.60;;
59824;SDS011;45703;50.898;6.054;2023-11-19T07:43:50;14.65;;;2.65;;
59824;SDS011;45703;50.898;6.054;2023-11-19T07:46:16;12.13;;;2.20;;
59824;SDS011;45703;50.898;6.054;2023-11-19T07:48:44;14.63;;;2.47;;
59824;SDS011;45703;50.898;6.054;2023-11-19T07:51:12;12.88;;;2.90;;
59824;SDS011;45703;50.898;6.054;2023-11-19T07:53:38;16.10;;;3.28;;
59824;SDS011;45703;50.898;6.054;2023-11-19T07:56:03;12.57;;;2.80;;
59824;SDS011;45703;50.898;6.054;2023-11-19T07:58:30;14.30;;;2.72;;
59824;SDS011;45703;50.898;6.054;2023-11-19T08:00:56;14.93;;;2.78;;
59824;SDS011;45703;50.898;6.054;2023-11-19T08:03:21;13.10;;;2.47;;
59824;SDS011;45703;50.898;6.054;2023-11-19T08:05:47;16.88;;;2.92;;
59824;SDS011;45703;50.898;6.054;2023-11-19T08:08:12;13.15;;;2.88;;
59824;SDS011;45703;50.898;6.054;2023-11-19T08:10:38;13.70;;;3.05;;
59824;SDS011;45703;50.898;6.054;2023-11-19T08:13:05;14.38;;;2.75;;
59824;SDS011;45703;50.898;6.054;2023-11-19T08:15:30;13.20;;;2.70;;
59824;SDS011;45703;50.898;6.054;2023-11-19T08:17:56;15.85;;;2.75;;
59824;SDS011;45703;50.898;6.054;2023-11-19T08:20:21;16.15;;;3.28;;
59824;SDS011;45703;50.898;6.054;2023-11-19T08:22:47;17.27;;;2.85;;
59824;SDS011;45703;50.898;6.054;2023-11-19T08:25:12;15.68;;;2.78;;
59824;SDS011;45703;50.898;6.054;2023-11-19T08:27:38;14.27;;;2.85;;
59824;SDS011;45703;50.898;6.054;2023-11-19T08:30:04;14.00;;;2.50;;
59824;SDS011;45703;50.898;6.054;2023-11-19T08:32:31;12.70;;;2.65;;
59824;SDS011;45703;50.898;6.054;2023-11-19T08:34:56;14.68;;;3.28;;
59824;SDS011;45703;50.898;6.054;2023-11-19T08:37:21;16.67;;;3.08;;
59824;SDS011;45703;50.898;6.054;2023-11-19T08:39:47;14.80;;;3.00;;
59824;SDS011;45703;50.898;6.054;2023-11-19T08:42:13;18.05;;;2.83;;
59824;SDS011;45703;50.898;6.054;2023-11-19T08:44:39;13.85;;;2.38;;
59824;SDS011;45703;50.898;6.054;2023-11-19T08:47:08;12.95;;;2.35;;
59824;SDS011;45703;50.898;6.054;2023-11-19T08:49:33;16.20;;;2.80;;
59824;SDS011;45703;50.898;6.054;2023-11-19T08:51:59;14.68;;;3.17;;
59824;SDS011;45703;50.898;6.054;2023-11-19T08:54:24;15.73;;;3.03;;
59824;SDS011;45703;50.898;6.054;2023-11-19T08:56:50;19.15;;;3.10;;
59824;SDS011;45703;50.898;6.054;2023-11-19T08:59:15;17.50;;;2.90;;
59824;SDS011;45703;50.898;6.054;2023-11-19T09:01:41;13.05;;;2.83;;
59824;SDS011;45703;50.898;6.054;2023-11-19T09:04:07;12.55;;;2.50;;
59824;SDS011;45703;50.898;6.054;2023-11-19T09:06:35;14.82;;;2.85;;
59824;SDS011;45703;50.898;6.054;2023-11-19T09:09:00;14.85;;;2.78;;
59824;SDS011;45703;50.898;6.054;2023-11-19T09:11:28;19.70;;;3.20;;
59824;SDS011;45703;50.898;6.054;2023-11-19T09:13:54;13.27;;;2.70;;
59824;SDS011;45703;50.898;6.054;2023-11-19T09:16:19;18.50;;;2.95;;
59824;SDS011;45703;50.898;6.054;2023-11-19T09:18:45;16.90;;;3.05;;
59824;SDS011;45703;50.898;6.054;2023-11-19T09:21:11;15.57;;;2.83;;
59824;SDS011;45703;50.898;6.054;2023-11-19T09:23:36;11.75;;;2.35;;
59824;SDS011;45703;50.898;6.054;2023-11-19T09:26:13;13.77;;;2.88;;
59824;SDS011;45703;50.898;6.054;2023-11-19T09:28:38;16.00;;;2.55;;
59824;SDS011;45703;50.898;6.054;2023-11-19T09:31:12;15.32;;;3.03;;
59824;SDS011;45703;50.898;6.054;2023-11-19T09:33:38;16.33;;;2.95;;
59824;SDS011;45703;50.898;6.054;2023-11-19T09:36:04;11.57;;;2.63;;
59824;SDS011;45703;50.898;6.054;2023-11-19T09:38:29;14.35;;;2.35;;
59824;SDS011;45703;50.898;6.054;2023-11-19T09:41:00;21.13;;;3.08;;
59824;SDS011;45703;50.898;6.054;2023-11-19T09:43:26;17.17;;;2.63;;
59824;SDS011;45703;50.898;6.054;2023-11-19T09:45:53;13.00;;;2.67;;
59824;SDS011;45703;50.898;6.054;2023-11-19T09:48:21;12.35;;;2.55;;
59824;SDS011;45703;50.898;6.054;2023-11-19T09:50:49;14.52;;;2.72;;
59824;SDS011;45703;50.898;6.054;2023-11-19T09:53:15;13.43;;;2.63;;
59824;SDS011;45703;50.898;6.054;2023-11-19T09:55:41;9.90;;;2.60;;
59824;SDS011;45703;50.898;6.054;2023-11-19T09:58:07;10.82;;;2.30;;
59824;SDS011;45703;50.898;6.054;2023-11-19T10:00:33;14.80;;;2.55;;
59824;SDS011;45703;50.898;6.054;2023-11-19T10:03:02;17.52;;;2.55;;
59824;SDS011;45703;50.898;6.054;2023-11-19T10:07:55;13.25;;;3.00;;
59824;SDS011;45703;50.898;6.054;2023-11-19T10:10:21;15.55;;;3.50;;
59824;SDS011;45703;50.898;6.054;2023-11-19T10:12:46;20.13;;;2.88;;
59824;SDS011;45703;50.898;6.054;2023-11-19T10:15:21;13.73;;;3.30;;
59824;SDS011;45703;50.898;6.054;2023-11-19T10:17:49;15.18;;;3.17;;
59824;SDS011;45703;50.898;6.054;2023-11-19T10:20:18;11.52;;;2.78;;
59824;SDS011;45703;50.898;6.054;2023-11-19T10:25:29;13.10;;;2.38;;
59824;SDS011;45703;50.898;6.054;2023-11-19T10:27:55;16.38;;;3.03;;
59824;SDS011;45703;50.898;6.054;2023-11-19T10:30:23;14.52;;;2.70;;
59824;SDS011;45703;50.898;6.054;2023-11-19T10:33:24;15.00;;;3.40;;
59824;SDS011;45703;50.898;6.054;2023-11-19T10:35:54;19.50;;;2.80;;
59824;SDS011;45703;50.898;6.054;2023-11-19T10:38:27;14.85;;;2.88;;
59824;SDS011;45703;50.898;6.054;2023-11-19T10:40:53;11.90;;;2.70;;
59824;SDS011;45703;50.898;6.054;2023-11-19T10:43:19;15.20;;;2.75;;
59824;SDS011;45703;50.898;6.054;2023-11-19T10:45:49;13.68;;;2.70;;
59824;SDS011;45703;50.898;6.054;2023-11-19T10:48:15;14.63;;;2.97;;
59824;SDS011;45703;50.898;6.054;2023-11-19T10:50:41;11.32;;;2.13;;
59824;SDS011;45703;50.898;6.054;2023-11-19T10:53:08;15.63;;;2.70;;
59824;SDS011;45703;50.898;6.054;2023-11-19T10:55:37;10.85;;;2.70;;
59824;SDS011;45703;50.898;6.054;2023-11-19T10:58:06;10.95;;;2.28;;
59824;SDS011;45703;50.898;6.054;2023-11-19T11:00:43;14.05;;;2.97;;
59824;SDS011;45703;50.898;6.054;2023-11-19T11:03:24;15.30;;;2.20;;
59824;SDS011;45703;50.898;6.054;2023-11-19T11:05:55;11.00;;;2.10;;
59824;SDS011;45703;50.898;6.054;2023-11-19T11:08:21;10.40;;;1.80;;
59824;SDS011;45703;50.898;6.054;2023-11-19T11:13:19;10.38;;;2.20;;
59824;SDS011;45703;50.898;6.054;2023-11-19T11:15:50;12.00;;;2.33;;
59824;SDS011;45703;50.898;6.054;2023-11-19T11:18:16;12.85;;;2.83;;
59824;SDS011;45703;50.898;6.054;2023-11-19T11:20:46;14.10;;;2.20;;
59824;SDS011;45703;50.898;6.054;2023-11-19T11:29:08;12.65;;;2.60;;
59824;SDS011;45703;50.898;6.054;2023-11-19T11:31:42;13.77;;;3.05;;
59824;SDS011;45703;50.898;6.054;2023-11-19T11:39:43;12.40;;;2.55;;
59824;SDS011;45703;50.898;6.054;2023-11-19T11:50:10;14.52;;;2.33;;
59824;SDS011;45703;50.898;6.054;2023-11-19T11:57:57;14.25;;;2.88;;
59824;SDS011;45703;50.898;6.054;2023-11-19T12:03:00;10.32;;;2.05;;
59824;SDS011;45703;50.898;6.054;2023-11-19T12:05:26;10.48;;;2.30;;
59824;SDS011;45703;50.898;6.054;2023-11-19T12:07:55;9.85;;;2.17;;
59824;SDS011;45703;50.898;6.054;2023-11-19T12:10:25;13.02;;;2.30;;
59824;SDS011;45703;50.898;6.054;2023-11-19T12:12:57;10.55;;;2.50;;
59824;SDS011;45703;50.898;6.054;2023-11-19T12:15:23;12.45;;;1.85;;
59824;SDS011;45703;50.898;6.054;2023-11-19T12:17:51;8.18;;;2.10;;
59824;SDS011;45703;50.898;6.054;2023-11-19T12:20:18;12.27;;;2.38;;
59824;SDS011;45703;50.898;6.054;2023-11-19T12:22:45;13.00;;;2.15;;
59824;SDS011;45703;50.898;6.054;2023-11-19T12:25:12;10.73;;;2.10;;
59824;SDS011;45703;50.898;6.054;2023-11-19T12:27:45;11.00;;;2.10;;
59824;SDS011;45703;50.898;6.054;2023-11-19T12:30:11;11.25;;;2.28;;
59824;SDS011;45703;50.898;6.054;2023-11-19T12:32:41;11.02;;;2.40;;
59824;SDS011;45703;50.898;6.054;2023-11-19T12:35:08;14.00;;;3.22;;
59824;SDS011;45703;50.898;6.054;2023-11-19T12:37:43;9.63;;;2.45;;
59824;SDS011;45703;50.898;6.054;2023-11-19T12:40:16;16.95;;;3.00;;
59824;SDS011;45703;50.898;6.054;2023-11-19T12:42:47;12.40;;;2.72;;
59824;SDS011;45703;50.898;6.054;2023-11-19T12:45:19;14.70;;;3.13;;
59824;SDS011;45703;50.898;6.054;2023-11-19T12:47:47;13.35;;;2.70;;
59824;SDS011;45703;50.898;6.054;2023-11-19T12:50:13;17.77;;;3.08;;
59824;SDS011;45703;50.898;6.054;2023-11-19T12:52:40;14.90;;;2.92;;
59824;SDS011;45703;50.898;6.054;2023-11-19T12:55:28;15.07;;;2.50;;
59824;SDS011;45703;50.898;6.054;2023-11-19T12:57:55;11.00;;;2.50;;
59824;SDS011;45703;50.898;6.054;2023-11-19T13:00:24;11.93;;;2.25;;
59824;SDS011;45703;50.898;6.054;2023-11-19T13:02:52;13.00;;;2.42;;
59824;SDS011;45703;50.898;6.054;2023-11-19T13:08:07;11.57;;;2.20;;
59824;SDS011;45703;50.898;6.054;2023-11-19T13:13:18;14.68;;;2.60;;
59824;SDS011;45703;50.898;6.054;2023-11-19T13:15:44;15.75;;;2.50;;
59824;SDS011;45703;50.898;6.054;2023-11-19T13:18:13;13.35;;;2.50;;
59824;SDS011;45703;50.898;6.054;2023-11-19T13:20:41;13.43;;;2.63;;
59824;SDS011;45703;50.898;6.054;2023-11-19T13:23:11;12.82;;;2.33;;
59824;SDS011;45703;50.898;6.054;2023-11-19T13:25:37;12.05;;;2.17;;
59824;SDS011;45703;50.898;6.054;2023-11-19T13:28:02;10.50;;;2.35;;
59824;SDS011;45703;50.898;6.054;2023-11-19T13:30:31;11.93;;;2.10;;
59824;SDS011;45703;50.898;6.054;2023-11-19T13:32:56;10.63;;;2.42;;
59824;SDS011;45703;50.898;6.054;2023-11-19T13:35:22;11.93;;;2.58;;
59824;SDS011;45703;50.898;6.054;2023-11-19T13:37:54;12.10;;;2.42;;
59824;SDS011;45703;50.898;6.054;2023-11-19T13:40:20;10.70;;;1.65;;
59824;SDS011;45703;50.898;6.054;2023-11-19T13:42:50;9.35;;;1.80;;
59824;SDS011;45703;50.898;6.054;2023-11-19T13:45:15;9.50;;;1.95;;
59824;SDS011;45703;50.898;6.054;2023-11-19T13:47:43;10.50;;;2.47;;
59824;SDS011;45703;50.898;6.054;2023-11-19T13:50:10;12.40;;;2.13;;
59824;SDS011;45703;50.898;6.054;2023-11-19T13:52:43;11.90;;;2.15;;
59824;SDS011;45703;50.898;6.054;2023-11-19T13:55:13;15.13;;;2.20;;
59824;SDS011;45703;50.898;6.054;2023-11-19T13:57:39;9.48;;;1.75;;
59824;SDS011;45703;50.898;6.054;2023-11-19T14:00:07;11.63;;;2.38;;
59824;SDS011;45703;50.898;6.054;2023-11-19T14:02:41;12.02;;;2.08;;
59824;SDS011;45703;50.898;6.054;2023-11-19T14:05:07;12.57;;;3.13;;
59824;SDS011;45703;50.898;6.054;2023-11-19T14:07:39;15.57;;;3.97;;
59824;SDS011;45703;50.898;6.054;2023-11-19T14:10:06;13.25;;;2.20;;
59824;SDS011;45703;50.898;6.054;2023-11-19T14:12:34;17.52;;;2.60;;
59824;SDS011;45703;50.898;6.054;2023-11-19T14:15:01;13.13;;;2.63;;
59824;SDS011;45703;50.898;6.054;2023-11-19T14:17:26;14.88;;;3.00;;
59824;SDS011;45703;50.898;6.054;2023-11-19T14:19:51;10.95;;;2.20;;
59824;SDS011;45703;50.898;6.054;2023-11-19T14:22:17;10.50;;;1.95;;
59824;SDS011;45703;50.898;6.054;2023-11-19T14:24:42;11.23;;;2.30;;
59824;SDS011;45703;50.898;6.054;2023-11-19T14:27:11;12.48;;;2.60;;
59824;SDS011;45703;50.898;6.054;2023-11-19T14:29:36;10.82;;;2.20;;
59824;SDS011;45703;50.898;6.054;2023-11-19T14:32:02;15.50;;;2.85;;
59824;SDS011;45703;50.898;6.054;2023-11-19T14:34:31;13.13;;;2.67;;
59824;SDS011;45703;50.898;6.054;2023-11-19T14:36:57;9.85;;;2.20;;
59824;SDS011;45703;50.898;6.054;2023-11-19T14:39:23;14.75;;;2.30;;
59824;SDS011;45703;50.898;6.054;2023-11-19T14:41:48;17.73;;;2.60;;
59824;SDS011;45703;50.898;6.054;2023-11-19T14:44:14;13.15;;;2.92;;
59824;SDS011;45703;50.898;6.054;2023-11-19T14:46:40;13.85;;;2.70;;
59824;SDS011;45703;50.898;6.054;2023-11-19T14:49:06;11.05;;;2.20;;
59824;SDS011;45703;50.898;6.054;2023-11-19T14:51:35;13.45;;;2.75;;
59824;SDS011;45703;50.898;6.054;2023-11-19T14:54:01;12.05;;;2.28;;
59824;SDS011;45703;50.898;6.054;2023-11-19T14:56:27;14.45;;;2.95;;
59824;SDS011;45703;50.898;6.054;2023-11-19T14:58:54;14.10;;;2.67;;
59824;SDS011;45703;50.898;6.054;2023-11-19T15:01:20;12.90;;;2.53;;
59824;SDS011;45703;50.898;6.054;2023-11-19T15:03:45;14.27;;;2.80;;
59824;SDS011;45703;50.898;6.054;2023-11-19T15:06:10;20.10;;;2.75;;
59824;SDS011;45703;50.898;6.054;2023-11-19T15:08:36;13.40;;;2.90;;
59824;SDS011;45703;50.898;6.054;2023-11-19T15:11:03;13.48;;;2.40;;
59824;SDS011;45703;50.898;6.054;2023-11-19T15:13:30;11.20;;;2.67;;
59824;SDS011;45703;50.898;6.054;2023-11-19T15:15:57;12.93;;;2.58;;
59824;SDS011;45703;50.898;6.054;2023-11-19T15:18:22;16.88;;;2.78;;
59824;SDS011;45703;50.898;6.054;2023-11-19T15:20:48;13.75;;;2.78;;